createdAt,value
2022-12-03T00:01:57.880Z,0.32
2022-12-03T00:04:30.070Z,0.35
2022-12-03T00:07:02.213Z,0.36
2022-12-03T00:09:34.431Z,0.35
2022-12-03T00:12:07.986Z,0.35
2022-12-03T00:14:52.475Z,0.36
2022-12-03T00:17:24.615Z,0.37
2022-12-03T00:19:57.140Z,0.36
2022-12-03T00:22:29.536Z,0.34
2022-12-03T00:25:01.779Z,0.36
2022-12-03T00:27:33.894Z,0.40
2022-12-03T00:30:07.727Z,0.41
2022-12-03T00:32:40.149Z,0.40
2022-12-03T00:35:12.652Z,0.39
2022-12-03T00:37:45.410Z,0.37
2022-12-03T00:40:17.915Z,0.34
2022-12-03T00:42:49.977Z,0.33
2022-12-03T00:45:22.247Z,0.29
2022-12-03T00:47:54.390Z,0.24
2022-12-03T00:50:27.196Z,0.16
2022-12-03T00:52:59.629Z,0.17
2022-12-03T00:55:32.096Z,0.18
2022-12-03T00:58:04.546Z,0.15
2022-12-03T01:00:36.843Z,0.14
2022-12-03T01:03:09.039Z,0.20
2022-12-03T01:05:41.084Z,0.23
2022-12-03T01:08:14.411Z,0.26
2022-12-03T01:10:47.231Z,0.28
2022-12-03T01:13:19.322Z,0.31
2022-12-03T01:15:51.759Z,0.32
2022-12-03T01:18:23.936Z,0.33
2022-12-03T01:20:56.153Z,0.30
2022-12-03T01:23:28.252Z,0.28
2022-12-03T01:26:00.418Z,0.30
2022-12-03T01:28:32.666Z,0.28
2022-12-03T01:31:22.622Z,0.28
2022-12-03T01:33:54.870Z,0.27
2022-12-03T01:36:27.447Z,0.30
2022-12-03T01:38:59.668Z,0.30
2022-12-03T01:41:33.243Z,0.30
2022-12-03T01:44:12.989Z,0.32
2022-12-03T01:46:46.341Z,0.32
2022-12-03T01:49:23.269Z,0.30
2022-12-03T01:51:57.304Z,0.33
2022-12-03T01:54:36.051Z,0.37
2022-12-03T01:57:15.694Z,0.41
2022-12-03T01:59:48.270Z,0.42
2022-12-03T02:02:24.355Z,0.44
2022-12-03T02:04:57.417Z,0.48
2022-12-03T02:07:33.871Z,0.50
2022-12-03T02:10:09.039Z,0.53
2022-12-03T02:12:44.372Z,0.55
2022-12-03T02:15:16.587Z,0.55
2022-12-03T02:17:49.191Z,0.55
2022-12-03T02:20:22.197Z,0.54
2022-12-03T02:23:01.592Z,0.57
2022-12-03T02:25:35.788Z,0.59
2022-12-03T02:28:10.086Z,0.62
2022-12-03T02:30:42.349Z,0.63
2022-12-03T02:33:14.541Z,0.61
2022-12-03T02:35:47.161Z,0.58
2022-12-03T02:38:22.720Z,0.56
2022-12-03T02:40:59.646Z,0.54
2022-12-03T02:43:32.070Z,0.56
2022-12-03T02:46:05.688Z,0.59
2022-12-03T02:48:41.145Z,0.63
2022-12-03T02:51:13.645Z,0.64
2022-12-03T02:53:49.296Z,0.65
2022-12-03T02:56:24.866Z,0.63
2022-12-03T02:58:59.417Z,0.59
2022-12-03T03:01:31.844Z,0.56
2022-12-03T03:04:05.264Z,0.53
2022-12-03T03:06:37.509Z,0.55
2022-12-03T03:09:09.730Z,0.58
2022-12-03T03:11:42.281Z,0.61
2022-12-03T03:14:14.576Z,0.59
2022-12-03T03:16:55.811Z,0.56
2022-12-03T03:19:30.049Z,0.53
2022-12-03T03:22:02.502Z,0.53
2022-12-03T03:24:35.281Z,0.54
2022-12-03T03:27:08.044Z,0.52
2022-12-03T03:29:40.206Z,0.52
2022-12-03T03:32:15.293Z,0.51
2022-12-03T03:34:47.615Z,0.49
2022-12-03T03:37:20.066Z,0.45
2022-12-03T03:39:52.361Z,0.43
2022-12-03T03:42:25.252Z,0.39
2022-12-03T03:44:57.826Z,0.37
2022-12-03T03:47:30.095Z,0.37
2022-12-03T03:50:02.760Z,0.43
2022-12-03T03:52:35.174Z,0.44
2022-12-03T03:55:09.360Z,0.42
2022-12-03T03:57:41.892Z,0.40
2022-12-03T04:00:15.891Z,0.37
2022-12-03T04:02:48.173Z,0.39
2022-12-03T04:05:23.899Z,0.40
2022-12-03T04:07:56.134Z,0.42
2022-12-03T04:10:46.258Z,0.47
2022-12-03T04:13:18.376Z,0.50
2022-12-03T04:15:50.570Z,0.52
2022-12-03T04:18:40.426Z,0.55
2022-12-03T04:21:30.516Z,0.56
2022-12-03T04:24:03.733Z,0.57
2022-12-03T04:26:53.770Z,0.59
2022-12-03T04:29:26.246Z,0.60
2022-12-03T04:32:15.982Z,0.61
2022-12-03T04:35:06.062Z,0.64
2022-12-03T04:37:38.208Z,0.69
2022-12-03T04:40:26.503Z,0.71
2022-12-03T04:42:58.723Z,0.69
2022-12-03T04:45:30.914Z,0.68
2022-12-03T04:48:03.085Z,0.65
2022-12-03T04:50:35.535Z,0.62
2022-12-03T04:53:07.629Z,0.59
2022-12-03T04:55:40.101Z,0.57
2022-12-03T04:58:12.375Z,0.55
2022-12-03T05:00:44.540Z,0.55
2022-12-03T05:03:16.683Z,0.57
2022-12-03T05:05:48.929Z,0.58
2022-12-03T05:08:21.072Z,0.57
2022-12-03T05:10:53.653Z,0.55
2022-12-03T05:13:25.849Z,0.56
2022-12-03T05:15:57.961Z,0.52
2022-12-03T05:18:30.425Z,0.51
2022-12-03T05:21:02.627Z,0.51
2022-12-03T05:23:34.772Z,0.51
2022-12-03T05:26:07.323Z,0.50
2022-12-03T05:28:39.518Z,0.52
2022-12-03T05:31:11.883Z,0.53
2022-12-03T05:33:44.688Z,0.53
2022-12-03T05:36:17.049Z,0.56
2022-12-03T05:38:49.163Z,0.58
2022-12-03T05:41:39.128Z,0.62
2022-12-03T05:44:14.015Z,0.67
2022-12-03T05:46:48.378Z,0.69
2022-12-03T05:49:20.544Z,0.71
2022-12-03T05:51:58.039Z,0.72
2022-12-03T05:54:30.665Z,0.74
2022-12-03T05:57:02.782Z,0.76
2022-12-03T05:59:34.875Z,0.77
2022-12-03T06:02:07.079Z,0.76
2022-12-03T06:04:39.286Z,0.78
2022-12-03T06:07:14.213Z,0.77
2022-12-03T06:09:45.471Z,0.73
2022-12-03T06:12:17.686Z,0.70
2022-12-03T06:14:49.880Z,0.71
2022-12-03T06:17:22.565Z,0.71
2022-12-03T06:19:54.806Z,0.72
2022-12-03T06:22:27.254Z,0.72
2022-12-03T06:25:03.528Z,0.72
2022-12-03T06:27:38.580Z,0.73
2022-12-03T06:30:12.948Z,0.75
2022-12-03T06:32:45.359Z,0.74
2022-12-03T06:35:17.466Z,0.74
2022-12-03T06:37:49.660Z,0.71
2022-12-03T06:40:21.958Z,0.72
2022-12-03T06:42:54.764Z,0.71
2022-12-03T06:45:26.882Z,0.70
2022-12-03T06:47:59.023Z,0.68
2022-12-03T06:50:31.217Z,0.68
2022-12-03T06:53:03.771Z,0.68
2022-12-03T06:55:35.827Z,0.70
2022-12-03T06:58:07.902Z,0.75
2022-12-03T07:00:40.028Z,0.78
2022-12-03T07:03:12.194Z,0.80
2022-12-03T07:05:44.790Z,0.80
2022-12-03T07:08:16.999Z,0.81
2022-12-03T07:10:49.195Z,0.82
2022-12-03T07:13:21.321Z,0.84
2022-12-03T07:15:53.598Z,0.80
2022-12-03T07:18:25.785Z,0.79
2022-12-03T07:20:57.901Z,0.80
2022-12-03T07:23:30.045Z,0.81
2022-12-03T07:26:02.194Z,0.81
2022-12-03T07:28:34.764Z,0.81
2022-12-03T07:31:07.543Z,0.82
2022-12-03T07:33:39.768Z,0.83
2022-12-03T07:36:12.852Z,0.83
2022-12-03T07:38:45.895Z,0.83
2022-12-03T07:41:18.117Z,0.86
2022-12-03T07:43:50.282Z,0.87
2022-12-03T07:46:22.650Z,0.86
2022-12-03T07:48:54.747Z,0.88
2022-12-03T07:51:32.010Z,0.87
2022-12-03T07:54:04.742Z,0.85
2022-12-03T07:56:37.250Z,0.86
2022-12-03T07:59:09.308Z,0.86
2022-12-03T08:01:41.640Z,0.91
2022-12-03T08:04:14.953Z,0.94
2022-12-03T08:06:47.426Z,0.97
2022-12-03T08:09:19.542Z,1.00
2022-12-03T08:11:52.479Z,1.02
2022-12-03T08:14:25.774Z,1.03
2022-12-03T08:16:57.981Z,1.06
2022-12-03T08:19:30.219Z,1.04
2022-12-03T08:22:02.507Z,1.02
2022-12-03T08:24:34.575Z,1.06
2022-12-03T08:27:16.011Z,1.08
2022-12-03T08:29:48.280Z,1.12
2022-12-03T08:32:20.492Z,1.15
2022-12-03T08:34:52.954Z,1.18
2022-12-03T08:37:25.349Z,1.14
2022-12-03T08:39:57.593Z,1.13
2022-12-03T08:42:43.537Z,1.13
2022-12-03T08:45:40.540Z,1.09
2022-12-03T08:48:32.624Z,1.04
2022-12-03T08:51:10.421Z,1.04
2022-12-03T08:53:47.658Z,1.06
2022-12-03T08:56:28.504Z,1.05
2022-12-03T08:59:03.847Z,1.03
2022-12-03T09:01:45.093Z,1.04
2022-12-03T09:04:31.478Z,1.08
2022-12-03T09:07:03.755Z,1.11
2022-12-03T09:09:35.919Z,1.09
2022-12-03T09:12:09.065Z,1.10
2022-12-03T09:14:41.331Z,1.13
2022-12-03T09:17:13.447Z,1.10
2022-12-03T09:19:46.402Z,1.09
2022-12-03T09:22:18.706Z,1.09
2022-12-03T09:24:51.123Z,1.10
2022-12-03T09:27:23.749Z,1.14
2022-12-03T09:29:55.824Z,1.20
2022-12-03T09:32:27.990Z,1.19
2022-12-03T09:35:00.080Z,1.18
2022-12-03T09:37:32.478Z,1.18
2022-12-03T09:40:04.961Z,1.17
2022-12-03T09:42:37.511Z,1.17
2022-12-03T09:45:13.090Z,1.18
2022-12-03T09:47:48.813Z,1.20
2022-12-03T09:50:24.026Z,1.23
2022-12-03T09:53:01.057Z,1.19
2022-12-03T09:55:33.410Z,1.18
2022-12-03T09:58:11.077Z,1.20
2022-12-03T10:00:48.702Z,1.22
2022-12-03T10:03:29.513Z,1.23
2022-12-03T10:06:02.151Z,1.24
2022-12-03T10:08:35.161Z,1.26
2022-12-03T10:11:07.510Z,1.29
2022-12-03T10:13:40.113Z,1.31
2022-12-03T10:16:15.513Z,1.32
2022-12-03T10:18:51.606Z,1.30
2022-12-03T10:21:25.165Z,1.30
2022-12-03T10:24:20.888Z,1.27
2022-12-03T10:26:55.027Z,1.26
2022-12-03T10:29:33.633Z,1.27
2022-12-03T10:32:08.606Z,1.25
2022-12-03T10:34:42.821Z,1.25
2022-12-03T10:37:20.170Z,1.26
2022-12-03T10:40:01.136Z,1.23
2022-12-03T10:42:34.943Z,1.19
2022-12-03T10:45:19.500Z,1.18
2022-12-03T10:48:12.916Z,1.19
2022-12-03T10:50:52.663Z,1.20
2022-12-03T10:53:29.391Z,1.23
2022-12-03T10:56:05.678Z,1.21
2022-12-03T10:58:40.024Z,1.21
2022-12-03T11:01:18.471Z,1.25
2022-12-03T11:03:51.690Z,1.26
2022-12-03T11:06:24.539Z,1.26
2022-12-03T11:09:02.549Z,1.28
2022-12-03T11:11:37.758Z,1.32
2022-12-03T11:14:14.737Z,1.33
2022-12-03T11:17:10.100Z,1.34
2022-12-03T11:19:51.026Z,1.33
2022-12-03T11:22:40.244Z,1.34
2022-12-03T11:25:47.033Z,1.36
2022-12-03T11:28:54.059Z,1.37
2022-12-03T11:31:40.980Z,1.34
2022-12-03T11:34:50.850Z,1.35
2022-12-03T11:37:28.472Z,1.39
2022-12-03T11:40:34.739Z,1.43
2022-12-03T11:43:12.413Z,1.48
2022-12-03T11:45:45.680Z,1.47
2022-12-03T11:48:18.909Z,1.51
2022-12-03T11:50:55.011Z,1.54
2022-12-03T11:53:31.275Z,1.57
2022-12-03T11:56:09.132Z,1.59
2022-12-03T11:58:43.702Z,1.59
2022-12-03T12:01:16.820Z,1.56
2022-12-03T12:03:50.776Z,1.53
2022-12-03T12:06:24.249Z,1.53
2022-12-03T12:09:03.591Z,1.53
2022-12-03T12:11:37.651Z,1.55
2022-12-03T12:14:11.004Z,1.56
2022-12-03T12:16:52.175Z,1.55
2022-12-03T12:19:41.399Z,1.56
2022-12-03T12:22:29.920Z,1.56
2022-12-03T12:25:03.143Z,1.57
2022-12-03T12:27:45.297Z,1.59
2022-12-03T12:30:19.940Z,1.60
2022-12-03T12:32:54.595Z,1.59
2022-12-03T12:35:28.500Z,1.61
2022-12-03T12:38:13.704Z,1.62
2022-12-03T12:40:49.321Z,1.60
2022-12-03T12:43:25.894Z,1.62
2022-12-03T12:46:18.586Z,1.64
2022-12-03T12:48:59.382Z,1.60
2022-12-03T12:51:39.776Z,1.58
2022-12-03T12:54:15.706Z,1.60
2022-12-03T12:56:51.076Z,1.61
2022-12-03T12:59:24.507Z,1.63
2022-12-03T13:01:56.680Z,1.66
2022-12-03T13:04:31.753Z,1.64
2022-12-03T13:07:03.921Z,1.61
2022-12-03T13:09:36.065Z,1.64
2022-12-03T13:12:19.675Z,1.67
2022-12-03T13:14:52.741Z,1.68
2022-12-03T13:17:26.419Z,1.68
2022-12-03T13:20:07.236Z,1.68
2022-12-03T13:22:40.253Z,1.70
2022-12-03T13:25:58.137Z,1.72
2022-12-03T13:28:25.753Z,1.73
2022-12-03T13:31:01.158Z,1.75
2022-12-03T13:33:34.750Z,1.78
2022-12-03T13:36:15.141Z,1.81
2022-12-03T13:38:48.002Z,1.82
2022-12-03T13:41:40.260Z,1.84
2022-12-03T13:44:21.132Z,1.84
2022-12-03T13:46:53.277Z,1.83
2022-12-03T13:49:26.005Z,1.81
2022-12-03T13:51:58.303Z,1.82
2022-12-03T13:54:36.999Z,1.85
2022-12-03T13:57:09.094Z,1.87
2022-12-03T13:59:41.565Z,1.86
2022-12-03T14:02:14.998Z,1.84
2022-12-03T14:04:47.214Z,1.85
2022-12-03T14:07:19.197Z,1.84
2022-12-03T14:09:51.789Z,1.83
2022-12-03T14:12:26.735Z,1.84
2022-12-03T14:14:58.825Z,1.84
2022-12-03T14:17:31.480Z,1.83
2022-12-03T14:20:04.330Z,1.86
2022-12-03T14:22:38.144Z,1.89
2022-12-03T14:25:11.736Z,1.88
2022-12-03T14:27:43.992Z,1.86
2022-12-03T14:30:17.108Z,1.86
2022-12-03T14:32:49.255Z,1.87
2022-12-03T14:35:21.750Z,1.88
2022-12-03T14:37:53.791Z,1.88
2022-12-03T14:40:26.448Z,1.88
2022-12-03T14:42:58.563Z,1.84
2022-12-03T14:45:31.048Z,1.84
2022-12-03T14:48:03.205Z,1.84
2022-12-03T14:50:35.324Z,1.83
2022-12-03T14:53:07.748Z,1.82
2022-12-03T14:55:40.019Z,1.83
2022-12-03T14:58:12.954Z,1.85
2022-12-03T15:00:45.071Z,1.85
2022-12-03T15:03:17.162Z,1.83
2022-12-03T15:05:49.356Z,1.77
2022-12-03T15:08:21.868Z,1.73
2022-12-03T15:10:54.053Z,1.76
2022-12-03T15:13:26.246Z,1.80
2022-12-03T15:15:58.775Z,1.78
2022-12-03T15:18:31.222Z,1.76
2022-12-03T15:21:04.000Z,1.76
2022-12-03T15:23:36.173Z,1.78
2022-12-03T15:26:08.622Z,1.77
2022-12-03T15:28:45.327Z,1.79
2022-12-03T15:31:20.248Z,1.83
2022-12-03T15:33:52.403Z,1.84
2022-12-03T15:36:24.569Z,1.83
2022-12-03T15:38:57.675Z,1.83
2022-12-03T15:41:30.264Z,1.84
2022-12-03T15:44:03.401Z,1.83
2022-12-03T15:46:35.735Z,1.83
2022-12-03T15:49:07.947Z,1.82
2022-12-03T15:51:39.981Z,1.80
2022-12-03T15:54:12.504Z,1.84
2022-12-03T15:56:44.624Z,1.86
2022-12-03T15:59:16.793Z,1.86
2022-12-03T16:01:48.975Z,1.83
2022-12-03T16:04:21.182Z,1.80
2022-12-03T16:06:53.405Z,1.79
2022-12-03T16:09:27.692Z,1.77
2022-12-03T16:12:00.098Z,1.76
2022-12-03T16:14:32.369Z,1.77
2022-12-03T16:17:04.480Z,1.79
2022-12-03T16:19:36.750Z,1.79
2022-12-03T16:22:08.918Z,1.80
2022-12-03T16:24:40.933Z,1.81
2022-12-03T16:27:13.101Z,1.83
2022-12-03T16:29:45.192Z,1.86
2022-12-03T16:32:17.364Z,1.87
2022-12-03T16:34:49.915Z,1.88
2022-12-03T16:37:22.132Z,1.86
2022-12-03T16:39:56.098Z,1.86
2022-12-03T16:42:28.541Z,1.89
2022-12-03T16:45:23.092Z,1.91
2022-12-03T16:47:56.592Z,1.93
2022-12-03T16:50:30.269Z,1.93
2022-12-03T16:53:02.663Z,1.93
2022-12-03T16:55:36.106Z,1.91
2022-12-03T16:58:08.512Z,1.90
2022-12-03T17:00:40.907Z,1.89
2022-12-03T17:03:13.148Z,1.87
2022-12-03T17:05:45.818Z,1.84
2022-12-03T17:08:18.658Z,1.86
2022-12-03T17:10:50.925Z,1.89
2022-12-03T17:13:24.129Z,1.90
2022-12-03T17:15:56.438Z,1.92
2022-12-03T17:18:29.002Z,1.92
2022-12-03T17:21:01.120Z,1.93
2022-12-03T17:23:33.158Z,1.93
2022-12-03T17:26:05.764Z,1.93
2022-12-03T17:28:37.938Z,1.92
2022-12-03T17:31:10.175Z,1.92
2022-12-03T17:33:42.807Z,1.92
2022-12-03T17:36:14.929Z,1.92
2022-12-03T17:38:47.039Z,1.91
2022-12-03T17:41:19.182Z,1.92
2022-12-03T17:43:51.249Z,1.91
2022-12-03T17:46:23.440Z,1.93
2022-12-03T17:48:55.662Z,1.95
2022-12-03T17:51:27.730Z,1.96
2022-12-03T17:53:59.878Z,1.97
2022-12-03T17:56:32.403Z,2.00
2022-12-03T17:59:04.897Z,2.02
2022-12-03T18:01:37.049Z,2.01
2022-12-03T18:04:09.799Z,2.03
2022-12-03T18:06:42.145Z,2.04
2022-12-03T18:09:14.469Z,2.03
2022-12-03T18:11:46.711Z,2.01
2022-12-03T18:14:18.903Z,1.99
2022-12-03T18:16:51.047Z,2.00
2022-12-03T18:19:23.159Z,2.04
2022-12-03T18:21:56.228Z,2.05
2022-12-03T18:24:28.936Z,2.04
2022-12-03T18:27:01.102Z,2.04
2022-12-03T18:29:33.346Z,2.03
2022-12-03T18:32:15.889Z,2.02
2022-12-03T18:34:58.754Z,2.02
2022-12-03T18:37:33.174Z,2.02
2022-12-03T18:40:12.760Z,2.04
2022-12-03T18:42:45.549Z,2.06
2022-12-03T18:45:17.999Z,2.07
2022-12-03T18:47:50.577Z,2.08
2022-12-03T18:50:22.899Z,2.09
2022-12-03T18:52:55.065Z,2.12
2022-12-03T18:55:31.945Z,2.15
2022-12-03T18:58:04.113Z,2.17
2022-12-03T19:00:36.906Z,2.18
2022-12-03T19:03:09.545Z,2.16
2022-12-03T19:05:41.804Z,2.17
2022-12-03T19:08:15.221Z,2.17
2022-12-03T19:10:55.935Z,2.16
2022-12-03T19:13:29.231Z,2.16
2022-12-03T19:16:04.443Z,2.16
2022-12-03T19:18:35.974Z,2.17
2022-12-03T19:21:11.430Z,2.16
2022-12-03T19:24:04.260Z,2.15
2022-12-03T19:26:36.449Z,2.17
2022-12-03T19:29:10.734Z,2.20
2022-12-03T19:31:42.948Z,2.20
2022-12-03T19:34:15.173Z,2.19
2022-12-03T19:36:48.286Z,2.21
2022-12-03T19:39:20.966Z,2.24
2022-12-03T19:41:53.134Z,2.24
2022-12-03T19:44:26.114Z,2.21
2022-12-03T19:46:58.453Z,2.19
2022-12-03T19:49:31.022Z,2.19
2022-12-03T19:52:03.124Z,2.19
2022-12-03T19:54:35.230Z,2.19
2022-12-03T19:57:07.553Z,2.19
2022-12-03T19:59:40.078Z,2.20
2022-12-03T20:02:13.367Z,2.17
2022-12-03T20:04:45.744Z,2.20
2022-12-03T20:07:17.828Z,2.24
2022-12-03T20:09:52.796Z,2.27
2022-12-03T20:12:25.758Z,2.27
2022-12-03T20:14:58.080Z,2.28
2022-12-03T20:17:30.275Z,2.30
2022-12-03T20:20:02.420Z,2.32
2022-12-03T20:22:34.560Z,2.33
2022-12-03T20:25:09.349Z,2.33
2022-12-03T20:27:41.483Z,2.34
2022-12-03T20:30:16.099Z,2.32
2022-12-03T20:32:48.202Z,2.28
2022-12-03T20:35:20.368Z,2.27
2022-12-03T20:37:52.489Z,2.29
2022-12-03T20:40:24.575Z,2.30
2022-12-03T20:42:56.970Z,2.31
2022-12-03T20:45:29.393Z,2.33
2022-12-03T20:48:01.779Z,2.34
2022-12-03T20:50:33.888Z,2.35
2022-12-03T20:53:23.759Z,2.36
2022-12-03T20:55:59.808Z,2.36
2022-12-03T20:58:33.561Z,2.36
2022-12-03T21:01:15.955Z,2.37
2022-12-03T21:03:49.547Z,2.36
2022-12-03T21:06:22.456Z,2.35
2022-12-03T21:08:56.365Z,2.38
2022-12-03T21:11:30.893Z,2.40
2022-12-03T21:14:04.279Z,2.43
2022-12-03T21:19:34.456Z,2.42
2022-12-03T21:22:07.040Z,2.44
2022-12-03T21:24:39.173Z,2.46
2022-12-03T21:27:11.259Z,2.48
2022-12-03T21:29:43.265Z,2.52
2022-12-03T21:32:15.346Z,2.56
2022-12-03T21:34:47.410Z,2.57
2022-12-03T21:37:19.554Z,2.57
2022-12-03T21:39:52.198Z,2.58
2022-12-03T21:42:35.349Z,2.61
2022-12-03T21:45:10.524Z,2.61
2022-12-03T21:47:43.078Z,2.57
2022-12-03T21:50:15.703Z,2.57
2022-12-03T21:52:47.821Z,2.58
2022-12-03T21:55:20.090Z,2.60
2022-12-03T21:57:52.313Z,2.62
2022-12-03T22:00:25.677Z,2.61
2022-12-03T22:02:57.828Z,2.63
2022-12-03T22:05:29.968Z,2.66
2022-12-03T22:08:02.117Z,2.66
2022-12-03T22:10:34.535Z,2.66
2022-12-03T22:13:06.963Z,2.66
2022-12-03T22:15:40.781Z,2.65
2022-12-03T22:18:13.011Z,2.64
2022-12-03T22:20:45.588Z,2.68
2022-12-03T22:23:18.089Z,2.66
2022-12-03T22:25:57.964Z,2.62
2022-12-03T22:28:30.413Z,2.64
2022-12-03T22:31:05.998Z,2.64
2022-12-03T22:33:38.696Z,2.63
2022-12-03T22:36:20.126Z,2.61
2022-12-03T22:38:54.112Z,2.60
2022-12-03T22:41:26.281Z,2.59
2022-12-03T22:43:58.374Z,2.59
2022-12-03T22:46:30.548Z,2.62
2022-12-03T22:49:07.180Z,2.62
2022-12-03T22:51:40.150Z,2.65
2022-12-03T22:54:12.856Z,2.68
2022-12-03T22:56:45.204Z,2.68
2022-12-03T22:59:17.405Z,2.69
2022-12-03T23:01:49.692Z,2.69
2022-12-03T23:04:21.941Z,2.65
2022-12-03T23:06:54.161Z,2.66
2022-12-03T23:09:26.351Z,2.65
2022-12-03T23:11:58.470Z,2.62
2022-12-03T23:14:30.588Z,2.64
2022-12-03T23:17:02.856Z,2.64
2022-12-03T23:19:35.153Z,2.64
2022-12-03T23:22:07.555Z,2.65
2022-12-03T23:24:40.260Z,2.66
2022-12-03T23:27:12.400Z,2.67
2022-12-03T23:29:44.542Z,2.68
2022-12-03T23:32:17.200Z,2.71
2022-12-03T23:34:49.877Z,2.73
2022-12-03T23:37:22.997Z,2.75
2022-12-03T23:39:55.372Z,2.72
2022-12-03T23:42:27.687Z,2.70
2022-12-03T23:44:59.932Z,2.70
2022-12-03T23:47:32.280Z,2.71
2022-12-03T23:50:05.420Z,2.69
2022-12-03T23:52:39.260Z,2.70
2022-12-03T23:55:12.048Z,2.70
2022-12-03T23:57:44.179Z,2.70
